createdAt,value
2018-05-13T00:00:57.744Z,280.10
2018-05-13T00:03:28.126Z,281.10
2018-05-13T00:05:55.913Z,283.77
2018-05-13T00:08:23.493Z,278.07
2018-05-13T00:10:51.349Z,283.50
2018-05-13T00:13:18.931Z,274.57
2018-05-13T00:15:47.328Z,280.90
2018-05-13T00:18:14.910Z,278.40
2018-05-13T00:20:42.486Z,273.47
2018-05-13T00:23:10.108Z,273.30
2018-05-13T00:25:38.453Z,278.67
2018-05-13T00:28:06.069Z,274.50
2018-05-13T00:30:33.655Z,272.23
2018-05-13T00:33:01.294Z,275.20
2018-05-13T00:35:28.872Z,276.23
2018-05-13T00:37:56.462Z,285.67
2018-05-13T00:40:24.077Z,282.63
2018-05-13T00:42:51.699Z,284.40
2018-05-13T00:45:19.381Z,281.27
2018-05-13T00:47:47.189Z,287.57
2018-05-13T00:50:14.765Z,282.00
2018-05-13T00:52:42.381Z,279.60
2018-05-13T00:55:09.954Z,289.50
2018-05-13T00:57:37.577Z,283.77
2018-05-13T01:00:05.970Z,289.77
2018-05-13T01:02:34.363Z,288.23
2018-05-13T01:05:01.950Z,293.67
2018-05-13T01:07:29.537Z,297.17
2018-05-13T01:09:57.173Z,301.50
2018-05-13T01:12:24.749Z,300.40
2018-05-13T01:14:52.375Z,298.67
2018-05-13T01:17:19.996Z,303.63
2018-05-13T01:19:47.573Z,297.57
2018-05-13T01:22:15.277Z,299.80
2018-05-13T01:24:42.853Z,308.33
2018-05-13T01:27:10.436Z,308.23
2018-05-13T01:29:38.057Z,307.70
2018-05-13T01:32:05.689Z,311.97
2018-05-13T01:34:34.086Z,309.77
2018-05-13T01:37:01.672Z,309.80
2018-05-13T01:39:29.292Z,323.60
2018-05-13T01:41:57.678Z,309.77
2018-05-13T01:44:25.351Z,308.30
2018-05-13T01:46:52.912Z,310.53
2018-05-13T01:49:20.532Z,313.53
2018-05-13T01:51:48.115Z,324.43
2018-05-13T01:54:16.467Z,315.47
2018-05-13T01:56:44.091Z,322.00
2018-05-13T01:59:11.714Z,317.47
2018-05-13T02:01:40.136Z,313.43
2018-05-13T02:04:07.763Z,313.97
2018-05-13T02:06:35.375Z,314.47
2018-05-13T02:09:02.952Z,308.87
2018-05-13T02:11:30.632Z,318.80
2018-05-13T02:13:58.166Z,322.80
2018-05-13T02:16:25.790Z,332.13
2018-05-13T02:18:53.374Z,324.70
2018-05-13T02:21:21.001Z,336.00
2018-05-13T02:23:48.588Z,333.00
2018-05-13T02:26:16.204Z,327.23
2018-05-13T02:28:44.545Z,333.97
2018-05-13T02:31:12.169Z,329.77
2018-05-13T02:33:39.749Z,336.13
2018-05-13T02:36:07.325Z,345.60
2018-05-13T02:38:34.960Z,347.10
2018-05-13T02:41:02.529Z,343.47
2018-05-13T02:43:30.151Z,357.00
2018-05-13T02:45:57.735Z,375.33
2018-05-13T02:48:25.352Z,374.23
2018-05-13T02:50:52.981Z,367.57
2018-05-13T02:53:20.565Z,370.33
2018-05-13T02:55:48.184Z,380.83
2018-05-13T02:58:15.761Z,391.63
2018-05-13T03:00:43.380Z,384.63
2018-05-13T03:03:11.737Z,387.40
2018-05-13T03:05:39.350Z,389.13
2018-05-13T03:08:06.930Z,390.07
2018-05-13T03:10:34.557Z,402.70
2018-05-13T03:13:02.135Z,404.37
2018-05-13T03:15:29.710Z,405.97
2018-05-13T03:17:57.327Z,406.97
2018-05-13T03:20:25.677Z,408.63
2018-05-13T03:22:53.292Z,414.23
2018-05-13T03:25:20.868Z,399.27
2018-05-13T03:27:48.481Z,398.67
2018-05-13T03:30:16.835Z,404.63
2018-05-13T03:32:44.471Z,401.80
2018-05-13T03:35:12.043Z,403.07
2018-05-13T03:37:39.664Z,399.17
2018-05-13T03:40:07.260Z,389.47
2018-05-13T03:42:34.881Z,396.07
2018-05-13T03:45:02.452Z,392.83
2018-05-13T03:47:30.079Z,388.40
2018-05-13T03:49:57.673Z,393.57
2018-05-13T03:52:25.284Z,391.13
2018-05-13T03:54:52.859Z,382.10
2018-05-13T03:57:20.465Z,387.23
2018-05-13T03:59:48.072Z,385.00
2018-05-13T04:02:15.643Z,385.20
2018-05-13T04:04:43.256Z,383.53
2018-05-13T04:07:10.836Z,380.83
2018-05-13T04:09:50.131Z,383.00
2018-05-13T04:12:29.323Z,376.20
2018-05-13T04:15:16.551Z,378.57
2018-05-13T04:17:44.129Z,368.80
2018-05-13T04:20:11.741Z,371.37
2018-05-13T04:22:39.344Z,353.97
2018-05-13T04:25:06.913Z,355.53
2018-05-13T04:27:35.386Z,356.53
2018-05-13T04:30:02.956Z,349.23
2018-05-13T04:32:30.568Z,339.40
2018-05-13T04:34:58.148Z,321.27
2018-05-13T04:37:25.755Z,324.13
2018-05-13T04:39:53.321Z,329.33
2018-05-13T04:42:21.691Z,318.87
2018-05-13T04:44:50.025Z,310.73
2018-05-13T04:47:17.632Z,296.20
2018-05-13T04:49:45.252Z,297.97
2018-05-13T04:52:12.825Z,290.00
2018-05-13T04:54:40.405Z,256.07
2018-05-13T04:57:08.775Z,254.77
2018-05-13T04:59:36.385Z,245.53
2018-05-13T05:02:03.992Z,246.93
2018-05-13T05:04:31.569Z,245.03
2018-05-13T05:06:59.948Z,161.73
2018-05-13T05:09:28.276Z,143.67
2018-05-13T05:11:55.849Z,139.63
2018-05-13T05:14:23.457Z,138.80
2018-05-13T05:16:51.071Z,135.17
2018-05-13T05:19:18.658Z,131.43
2018-05-13T05:21:46.283Z,130.20
2018-05-13T05:24:13.853Z,134.50
2018-05-13T05:26:41.566Z,124.60
2018-05-13T05:29:09.172Z,126.63
2018-05-13T05:31:36.788Z,116.60
2018-05-13T05:34:04.360Z,113.73
2018-05-13T05:36:31.932Z,112.93
2018-05-13T05:38:59.547Z,114.70
2018-05-13T05:41:27.125Z,116.00
2018-05-13T05:43:55.507Z,117.20
2018-05-13T05:46:23.849Z,126.93
2018-05-13T05:48:51.456Z,121.60
2018-05-13T05:51:19.074Z,121.83
2018-05-13T05:53:46.680Z,121.50
2018-05-13T05:56:15.056Z,128.57
2018-05-13T05:58:42.628Z,135.33
2018-05-13T06:01:10.244Z,152.57
2018-05-13T06:03:37.816Z,154.13
2018-05-13T06:06:05.420Z,161.90
2018-05-13T06:08:33.000Z,168.97
2018-05-13T06:11:00.605Z,175.00
2018-05-13T06:13:28.174Z,170.93
2018-05-13T06:15:55.795Z,177.60
2018-05-13T06:18:23.571Z,188.63
2018-05-13T06:20:51.145Z,197.80
2018-05-13T06:23:18.750Z,210.40
2018-05-13T06:25:46.315Z,236.07
2018-05-13T06:28:13.922Z,245.53
2018-05-13T06:30:41.492Z,258.30
2018-05-13T06:33:09.114Z,287.77
2018-05-13T06:35:36.695Z,302.73
2018-05-13T06:38:04.304Z,309.77
2018-05-13T06:40:31.876Z,321.50
2018-05-13T06:42:59.443Z,335.13
2018-05-13T06:45:27.057Z,336.90
2018-05-13T06:47:54.627Z,347.70
2018-05-13T06:50:22.995Z,327.97
2018-05-13T06:52:50.568Z,333.63
2018-05-13T06:55:18.172Z,331.30
2018-05-13T06:57:45.748Z,331.53
2018-05-13T07:00:13.377Z,327.50
2018-05-13T07:02:40.967Z,326.67
2018-05-13T07:05:08.561Z,328.13
2018-05-13T07:07:36.175Z,321.77
2018-05-13T07:10:03.746Z,317.50
2018-05-13T07:12:31.360Z,316.20
2018-05-13T07:14:59.905Z,312.40
2018-05-13T07:17:27.543Z,312.17
2018-05-13T07:19:55.119Z,303.87
2018-05-13T07:22:22.867Z,308.60
2018-05-13T07:24:50.379Z,302.10
2018-05-13T07:27:17.985Z,305.57
2018-05-13T07:29:45.669Z,302.57
2018-05-13T07:32:13.225Z,299.93
2018-05-13T07:34:40.829Z,306.87
2018-05-13T07:37:08.399Z,304.50
2018-05-13T07:39:36.792Z,305.27
2018-05-13T07:42:04.386Z,304.90
2018-05-13T07:44:31.962Z,303.83
2018-05-13T07:46:59.571Z,306.80
2018-05-13T07:49:27.149Z,295.90
2018-05-13T07:51:54.771Z,299.10
2018-05-13T07:54:22.342Z,302.33
2018-05-13T07:56:49.934Z,299.30
2018-05-13T07:59:17.550Z,302.80
2018-05-13T08:01:45.131Z,303.10
2018-05-13T08:04:13.503Z,308.80
2018-05-13T08:06:41.843Z,299.17
2018-05-13T08:09:09.456Z,303.03
2018-05-13T08:11:37.075Z,302.70
2018-05-13T08:14:04.651Z,297.70
2018-05-13T08:16:33.027Z,307.30
2018-05-13T08:19:00.657Z,305.73
2018-05-13T08:21:28.284Z,302.70
2018-05-13T08:23:55.815Z,297.63
2018-05-13T08:26:23.440Z,298.33
2018-05-13T08:28:51.051Z,296.10
2018-05-13T08:31:18.665Z,290.57
2018-05-13T08:33:46.281Z,286.17
2018-05-13T08:36:13.888Z,288.30
2018-05-13T08:38:41.469Z,292.87
2018-05-13T08:41:09.083Z,294.37
2018-05-13T08:43:36.666Z,288.37
2018-05-13T08:46:04.294Z,288.40
2018-05-13T08:48:32.709Z,288.50
2018-05-13T08:51:01.052Z,280.20
2018-05-13T08:53:29.404Z,279.10
2018-05-13T08:55:56.995Z,280.87
2018-05-13T08:58:24.623Z,271.77
2018-05-13T09:00:52.204Z,275.37
2018-05-13T09:03:20.589Z,273.33
2018-05-13T09:05:48.268Z,277.73
2018-05-13T09:08:15.964Z,270.20
2018-05-13T09:10:44.445Z,270.37
2018-05-13T09:13:12.009Z,260.70
2018-05-13T09:15:39.602Z,268.60
2018-05-13T09:18:07.215Z,272.97
2018-05-13T09:20:34.860Z,271.33
2018-05-13T09:23:02.446Z,265.20
2018-05-13T09:25:30.021Z,253.23
2018-05-13T09:27:57.641Z,246.00
2018-05-13T09:30:25.218Z,249.53
2018-05-13T09:32:52.803Z,247.30
2018-05-13T09:35:20.420Z,244.67
2018-05-13T09:37:48.031Z,231.30
2018-05-13T09:40:15.604Z,228.07
2018-05-13T09:42:43.241Z,223.43
2018-05-13T09:45:10.862Z,227.20
2018-05-13T09:47:38.457Z,228.87
2018-05-13T09:50:06.038Z,221.77
2018-05-13T09:52:33.666Z,216.83
2018-05-13T09:55:01.255Z,211.27
2018-05-13T09:57:28.836Z,211.70
2018-05-13T09:59:56.476Z,203.67
2018-05-13T10:02:24.692Z,203.00
2018-05-13T10:04:53.041Z,205.97
2018-05-13T10:07:20.663Z,195.73
2018-05-13T10:09:48.309Z,191.23
2018-05-13T10:12:16.689Z,186.60
2018-05-13T10:14:45.187Z,185.90
2018-05-13T10:17:12.770Z,184.87
2018-05-13T10:19:40.390Z,181.23
2018-05-13T10:22:07.990Z,178.73
2018-05-13T10:24:35.602Z,177.60
2018-05-13T10:27:03.225Z,151.93
2018-05-13T10:29:30.795Z,156.13
2018-05-13T10:31:58.376Z,147.90
2018-05-13T10:34:25.996Z,142.93
2018-05-13T10:36:53.613Z,137.10
2018-05-13T10:39:21.236Z,144.40
2018-05-13T10:41:48.813Z,138.63
2018-05-13T10:44:16.389Z,134.40
2018-05-13T10:46:44.013Z,131.07
2018-05-13T10:49:12.365Z,128.83
2018-05-13T10:51:39.987Z,129.77
2018-05-13T10:54:07.590Z,134.23
2018-05-13T10:56:35.211Z,120.90
2018-05-13T10:59:02.781Z,116.83
2018-05-13T11:01:30.359Z,114.43
2018-05-13T11:03:57.980Z,114.80
2018-05-13T11:06:25.567Z,105.70
2018-05-13T11:08:53.177Z,94.07
2018-05-13T11:11:20.777Z,86.10
2018-05-13T11:13:48.425Z,90.67
2018-05-13T11:16:15.992Z,86.37
2018-05-13T11:18:43.561Z,75.90
2018-05-13T11:21:11.272Z,69.93
2018-05-13T11:23:38.884Z,68.30
2018-05-13T11:26:06.454Z,67.87
2018-05-13T11:28:34.028Z,60.50
2018-05-13T11:31:03.044Z,54.53
2018-05-13T11:33:30.623Z,50.93
2018-05-13T11:35:59.059Z,46.20
2018-05-13T11:38:26.680Z,44.27
2018-05-13T11:40:54.292Z,44.07
2018-05-13T11:43:21.873Z,43.43
2018-05-13T11:45:49.445Z,40.97
2018-05-13T11:48:18.841Z,38.43
2018-05-13T11:50:46.422Z,38.27
2018-05-13T11:53:14.049Z,34.90
2018-05-13T11:55:41.629Z,35.93
2018-05-13T11:58:09.243Z,34.87
2018-05-13T12:00:36.815Z,33.63
2018-05-13T12:03:05.145Z,35.23
2018-05-13T12:05:32.759Z,34.33
2018-05-13T12:08:00.329Z,35.53
2018-05-13T12:10:27.943Z,33.63
2018-05-13T12:12:55.519Z,34.20
2018-05-13T12:15:23.129Z,34.03
2018-05-13T12:17:50.731Z,34.43
2018-05-13T12:20:18.313Z,32.67
2018-05-13T12:22:46.693Z,31.07
2018-05-13T12:25:15.088Z,27.23
2018-05-13T12:27:42.655Z,26.50
2018-05-13T12:30:10.225Z,26.90
2018-05-13T12:32:37.860Z,26.53
2018-05-13T12:35:05.436Z,24.83
2018-05-13T12:37:33.068Z,21.87
2018-05-13T12:40:00.636Z,22.10
2018-05-13T12:42:28.239Z,20.03
2018-05-13T12:44:55.811Z,18.63
2018-05-13T12:47:23.437Z,17.93
2018-05-13T12:49:51.778Z,17.20
2018-05-13T12:52:19.390Z,18.97
2018-05-13T12:54:46.999Z,17.33
2018-05-13T12:57:14.620Z,15.03
2018-05-13T12:59:42.190Z,14.73
2018-05-13T13:02:09.857Z,14.30
2018-05-13T13:04:37.494Z,16.17
2018-05-13T13:07:05.834Z,17.47
2018-05-13T13:09:33.469Z,15.30
2018-05-13T13:12:01.059Z,15.47
2018-05-13T13:14:28.682Z,14.17
2018-05-13T13:16:56.321Z,14.57
2018-05-13T13:19:24.551Z,14.67
2018-05-13T13:21:52.121Z,14.20
2018-05-13T13:24:19.744Z,15.27
2018-05-13T13:26:47.320Z,15.20
2018-05-13T13:29:14.942Z,14.83
2018-05-13T13:31:42.512Z,14.77
2018-05-13T13:34:10.086Z,14.43
2018-05-13T13:36:37.700Z,13.60
2018-05-13T13:52:03.911Z,17.37
2018-05-13T13:54:31.495Z,16.03
2018-05-13T13:56:59.114Z,16.27
2018-05-13T13:59:27.490Z,14.23
2018-05-13T14:01:55.105Z,14.83
2018-05-13T14:04:22.695Z,14.10
2018-05-13T14:06:50.307Z,15.40
2018-05-13T14:09:17.892Z,14.17
2018-05-13T14:11:45.470Z,15.10
2018-05-13T14:14:13.111Z,15.23
2018-05-13T14:16:40.744Z,15.60
2018-05-13T14:19:08.366Z,16.77
2018-05-13T14:21:35.946Z,16.87
2018-05-13T14:24:03.577Z,16.40
2018-05-13T14:26:31.154Z,17.20
2018-05-13T14:28:58.774Z,14.70
2018-05-13T14:31:26.399Z,17.03
2018-05-13T14:33:54.025Z,16.70
2018-05-13T14:36:21.599Z,16.70
2018-05-13T14:38:49.205Z,16.30
2018-05-13T14:41:16.819Z,17.90
2018-05-13T14:43:44.423Z,17.03
2018-05-13T14:46:12.042Z,17.27
2018-05-13T14:48:39.661Z,17.43
2018-05-13T14:51:07.240Z,17.43
2018-05-13T14:53:34.854Z,16.37
2018-05-13T14:56:02.434Z,18.10
2018-05-13T14:58:30.075Z,19.37
2018-05-13T15:00:57.656Z,20.67
2018-05-13T15:03:25.252Z,21.93
2018-05-13T15:05:52.861Z,25.67
2018-05-13T15:08:21.193Z,27.87
2018-05-13T15:10:48.800Z,29.67
2018-05-13T15:13:16.379Z,37.17
2018-05-13T15:15:43.998Z,59.97
2018-05-13T15:18:11.611Z,110.17
2018-05-13T15:20:39.175Z,159.57
2018-05-13T15:23:06.784Z,182.07
2018-05-13T15:25:34.361Z,205.43
2018-05-13T15:28:02.744Z,214.40
2018-05-13T15:30:31.093Z,234.67
2018-05-13T15:32:58.671Z,241.00
2018-05-13T15:35:26.285Z,250.57
2018-05-13T15:37:53.853Z,257.77
2018-05-13T15:40:21.473Z,255.00
2018-05-13T15:42:49.164Z,263.73
2018-05-13T15:45:16.675Z,260.53
2018-05-13T15:47:44.297Z,268.90
2018-05-13T15:50:11.915Z,266.83
2018-05-13T15:52:39.493Z,276.27
2018-05-13T15:55:07.151Z,272.27
2018-05-13T15:57:34.729Z,271.77
2018-05-13T16:00:02.304Z,266.43
2018-05-13T16:02:29.913Z,275.70
2018-05-13T16:04:58.256Z,281.40
2018-05-13T16:07:25.868Z,271.67
2018-05-13T16:09:54.209Z,274.97
2018-05-13T16:12:21.840Z,279.00
2018-05-13T16:14:49.416Z,275.47
2018-05-13T16:17:17.005Z,273.20
2018-05-13T16:19:44.613Z,278.00
2018-05-13T16:22:12.199Z,279.70
2018-05-13T16:24:39.829Z,275.60
2018-05-13T16:27:07.438Z,277.73
2018-05-13T16:29:35.937Z,282.43
2018-05-13T16:32:03.516Z,278.70
2018-05-13T16:34:31.133Z,287.67
2018-05-13T16:36:58.716Z,282.87
2018-05-13T16:39:26.337Z,281.07
2018-05-13T16:41:53.924Z,285.13
2018-05-13T16:44:21.536Z,284.67
2018-05-13T16:46:49.143Z,290.43
2018-05-13T16:49:16.716Z,289.03
2018-05-13T16:51:44.323Z,291.53
2018-05-13T16:54:11.953Z,291.90
2018-05-13T16:56:39.563Z,288.77
2018-05-13T16:59:07.148Z,288.57
2018-05-13T17:01:35.127Z,299.07
2018-05-13T17:04:02.703Z,298.20
2018-05-13T17:06:30.412Z,293.30
2018-05-13T17:08:58.039Z,300.57
2018-05-13T17:11:26.379Z,286.47
2018-05-13T17:13:53.999Z,279.17
2018-05-13T17:16:21.573Z,274.87
2018-05-13T17:18:49.151Z,287.27
2018-05-13T17:21:16.751Z,291.33
2018-05-13T17:23:44.364Z,300.57
2018-05-13T17:26:11.939Z,291.50
2018-05-13T17:28:39.559Z,289.80
2018-05-13T17:31:07.135Z,290.33
2018-05-13T17:33:34.706Z,292.50
2018-05-13T17:36:02.316Z,303.90
2018-05-13T17:38:29.895Z,294.40
2018-05-13T17:40:57.498Z,282.43
2018-05-13T17:43:25.081Z,279.67
2018-05-13T17:45:52.684Z,292.20
2018-05-13T17:48:21.024Z,294.00
2018-05-13T17:50:48.628Z,262.87
2018-05-13T17:53:16.238Z,257.83
2018-05-13T17:55:43.808Z,208.10
2018-05-13T17:58:11.487Z,138.83
2018-05-13T18:00:39.101Z,95.97
2018-05-13T18:03:06.752Z,84.17
2018-05-13T18:05:34.355Z,96.73
2018-05-13T18:08:01.965Z,131.53
2018-05-13T18:10:29.536Z,163.93
2018-05-13T18:12:57.149Z,341.97
2018-05-13T18:15:24.725Z,419.60
2018-05-13T18:17:52.431Z,503.10
2018-05-13T18:20:20.724Z,540.53
2018-05-13T18:22:48.339Z,557.77
2018-05-13T18:25:15.947Z,562.80
2018-05-13T18:27:43.557Z,556.70
2018-05-13T18:30:11.165Z,533.50
2018-05-13T18:32:38.734Z,449.57
2018-05-13T18:35:06.344Z,385.63
2018-05-13T18:37:33.920Z,287.27
2018-05-13T18:40:01.545Z,218.90
2018-05-13T18:42:29.128Z,186.23
2018-05-13T18:44:57.465Z,180.07
2018-05-13T18:47:25.068Z,114.70
2018-05-13T18:49:52.637Z,89.23
2018-05-13T18:52:20.245Z,70.53
2018-05-13T18:54:47.800Z,74.77
2018-05-13T18:57:15.404Z,69.67
2018-05-13T18:59:43.728Z,65.60
2018-05-13T19:02:11.346Z,57.30
2018-05-13T19:04:38.976Z,50.03
2018-05-13T19:07:06.540Z,41.03
2018-05-13T19:09:35.374Z,34.40
2018-05-13T19:12:03.000Z,31.90
2018-05-13T19:14:30.612Z,28.40
2018-05-13T19:16:58.181Z,26.57
2018-05-13T19:19:25.815Z,28.77
2018-05-13T19:21:53.416Z,27.73
2018-05-13T19:24:21.034Z,29.63
2018-05-13T19:26:48.636Z,30.73
2018-05-13T19:29:16.195Z,36.87
2018-05-13T19:31:43.800Z,42.23
2018-05-13T19:34:12.136Z,42.47
2018-05-13T19:36:39.736Z,55.57
2018-05-13T19:39:07.307Z,57.07
2018-05-13T19:41:35.694Z,55.77
2018-05-13T19:44:03.260Z,59.43
2018-05-13T19:46:31.584Z,64.83
2018-05-13T19:48:59.197Z,54.40
2018-05-13T19:51:26.763Z,58.30
2018-05-13T19:53:54.333Z,57.93
2018-05-13T19:56:21.938Z,62.47
2018-05-13T19:58:49.509Z,69.20
2018-05-13T20:01:17.210Z,60.70
2018-05-13T20:03:44.864Z,55.80
2018-05-13T20:06:12.371Z,53.70
2018-05-13T20:08:39.976Z,57.50
2018-05-13T20:11:08.343Z,56.47
2018-05-13T20:13:35.910Z,58.27
2018-05-13T20:16:03.537Z,57.17
2018-05-13T20:18:31.097Z,64.40
2018-05-13T20:20:58.655Z,62.83
2018-05-13T20:23:26.298Z,62.70
2018-05-13T20:25:53.867Z,59.53
2018-05-13T20:28:21.433Z,64.10
2018-05-13T20:30:49.048Z,69.03
2018-05-13T20:33:16.620Z,60.33
2018-05-13T20:35:44.238Z,63.03
2018-05-13T20:38:11.799Z,65.17
2018-05-13T20:40:39.367Z,65.27
2018-05-13T20:43:06.976Z,68.70
2018-05-13T20:45:34.544Z,73.30
2018-05-13T20:48:02.148Z,69.10
2018-05-13T20:50:29.760Z,70.83
2018-05-13T20:52:57.340Z,73.13
2018-05-13T20:55:24.910Z,75.10
2018-05-13T20:57:52.610Z,73.03
2018-05-13T21:00:20.115Z,78.93
2018-05-13T21:02:47.720Z,84.50
2018-05-13T21:05:15.361Z,88.33
2018-05-13T21:07:42.920Z,93.70
2018-05-13T21:10:10.533Z,89.70
2018-05-13T21:12:38.099Z,91.80
2018-05-13T21:15:05.708Z,95.63
2018-05-13T21:17:33.332Z,94.33
2018-05-13T21:20:00.901Z,96.53
2018-05-13T21:22:28.509Z,100.10
2018-05-13T21:24:56.084Z,108.70
2018-05-13T21:27:24.469Z,106.13
2018-05-13T21:29:52.810Z,106.77
2018-05-13T21:32:20.380Z,114.67
2018-05-13T21:34:48.001Z,117.20
2018-05-13T21:37:15.608Z,117.93
2018-05-13T21:39:43.223Z,120.77
2018-05-13T21:42:10.840Z,119.10
2018-05-13T21:44:38.808Z,120.67
2018-05-13T21:47:07.098Z,117.10
2018-05-13T21:49:35.967Z,121.00
2018-05-13T21:52:04.555Z,122.47
2018-05-13T21:54:33.000Z,127.93
2018-05-13T21:57:00.758Z,126.33
2018-05-13T21:59:28.388Z,128.43
2018-05-13T22:01:56.938Z,130.40
2018-05-13T22:04:24.532Z,129.30
2018-05-13T22:06:52.136Z,129.23
2018-05-13T22:09:19.747Z,131.07
2018-05-13T22:11:48.079Z,135.97
2018-05-13T22:14:16.509Z,138.40
2018-05-13T22:16:44.847Z,133.63
2018-05-13T22:19:12.740Z,132.27
2018-05-13T22:21:40.308Z,132.93
2018-05-13T22:24:07.914Z,128.30
2018-05-13T22:26:35.793Z,127.37
2018-05-13T22:29:03.750Z,124.37
2018-05-13T22:31:31.359Z,129.70
2018-05-13T22:33:58.932Z,127.30
2018-05-13T22:36:26.538Z,125.40
2018-05-13T22:38:54.124Z,125.67
2018-05-13T22:41:23.018Z,122.97
2018-05-13T22:43:50.712Z,120.77
2018-05-13T22:46:19.106Z,114.70
2018-05-13T22:48:46.685Z,109.80
2018-05-13T22:51:14.330Z,115.40
2018-05-13T22:53:42.158Z,114.57
2018-05-13T22:56:10.017Z,107.30
2018-05-13T22:58:38.835Z,100.33
2018-05-13T23:01:07.204Z,80.93
2018-05-13T23:03:34.773Z,69.57
2018-05-13T23:06:02.379Z,68.30
2018-05-13T23:08:29.945Z,65.60
2018-05-13T23:10:57.544Z,64.10
2018-05-13T23:13:25.176Z,58.57
2018-05-13T23:15:52.744Z,58.20
2018-05-13T23:18:20.346Z,55.07
2018-05-13T23:20:48.675Z,52.13
2018-05-13T23:23:16.290Z,50.80
2018-05-13T23:25:43.865Z,44.70
2018-05-13T23:28:11.473Z,38.73
2018-05-13T23:30:39.045Z,39.90
2018-05-13T23:33:06.657Z,35.87
2018-05-13T23:35:34.219Z,33.17
2018-05-13T23:38:01.821Z,31.37
2018-05-13T23:40:29.403Z,30.97
2018-05-13T23:42:57.020Z,33.63
2018-05-13T23:45:24.593Z,29.00
2018-05-13T23:47:52.160Z,27.03
2018-05-13T23:50:19.767Z,24.37
2018-05-13T23:52:48.103Z,26.00
2018-05-13T23:55:15.704Z,27.77
2018-05-13T23:57:43.272Z,24.37
